Flight Track Log - Related Links

Times and Time Zones

All times are in EDT time to prevent confusion due to time zone crossing. See the SKW6377 flight status page for this flight to view local times or setup timezone preferences in your user account.

Time Position Orientation Groundspeed Altitude Reporting Facility
EDT Latitude Longitude Course Direction KTS MPH feet Rate Location/Type
Wed 03:51:00 PM 42.8242 -106.3300 172° South 259 298 12,200  Level Denver Center
Wed 03:52:02 PM 42.7367 -106.3258 178° South 299 344 13,800 1,742 Climbing Denver Center
Wed 03:53:00 PM 42.7887 -106.2667 180° South  Level FlightAware Approximate
Wed 03:53:04 PM 42.6481 -106.3181 176° South 330 380 15,800  Level Denver Center
Wed 03:54:00 PM 42.6914 -106.2660 176° South  Level FlightAware Approximate
Wed 03:54:06 PM 42.5383 -106.3117 178° South 355 409 17,900  Level Denver Center
Wed 03:55:00 PM 42.5942 -106.2578 176° South  Level FlightAware Approximate
Wed 03:55:08 PM 42.4417 -106.3064 178° South 360 414 20,100  Level Denver Center
Wed 03:56:10 PM 42.3356 -106.3003 178° South 350 403 22,500 1,707 Climbing Denver Center
Wed 03:57:11 PM 42.2411 -106.2939 177° South 352 405 23,600 1,171 Climbing Denver Center
Wed 03:58:13 PM 42.1261 -106.2867 177° South 363 418 24,900 1,210 Climbing Denver Center
Wed 03:59:15 PM 42.0247 -106.2797 177° South 375 432 26,100 1,016 Climbing Denver Center
Wed 04:00:17 PM 41.9083 -106.2731 178° South 376 433 27,000 435 Climbing Denver Center
Wed 04:01:19 PM 41.8044 -106.2658 177° South 387 445 27,000  Level Denver Center
Wed 04:02:33 PM 41.6786 -106.2586 178° South 402 463 27,000  Level Denver Center
Wed 04:03:35 PM 41.5603 -106.2500 177° South 382 440 27,000  Level Denver Center
Wed 04:04:37 PM 41.4581 -106.2439 177° South 335 386 27,000  Level Denver Center
Wed 04:05:39 PM 41.3708 -106.2069 162° South 339 390 27,000  Level Denver Center
Wed 04:06:52 PM 41.2792 -106.1678 162° South 341 392 27,000  Level Denver Center
Wed 04:07:55 PM 41.1533 -106.1144 162° South 342 394 27,000  Level Denver Center
Wed 04:08:56 PM 41.0689 -106.0706 159° South 340 391 27,000  Level Denver Center
Wed 04:09:58 PM 40.9764 -106.0172 156° South 350 403 27,000  Level Denver Center
Wed 04:11:00 PM 40.8836 -105.9511 152° Southeast 373 429 27,000  Level Denver Center
Wed 04:12:02 PM 40.8164 -105.8247 125° Southeast 413 475 27,000 -49 Level Denver Center
Wed 04:13:03 PM 40.7578 -105.7197 126° Southeast 420 483 26,900 -677 Descending Denver Center
Wed 04:14:06 PM 40.6775 -105.5739 126° Southeast 417 480 25,600 -1,161 Descending Denver Center
Wed 04:15:07 PM 40.6231 -105.4731 125° Southeast 404 465 24,500 -1,512 Descending Denver Center
Wed 04:16:09 PM 40.5414 -105.3264 126° Southeast 372 428 22,500 -1,694 Descending Denver Center
Wed 04:17:11 PM 40.4836 -105.2300 128° Southeast 340 391 21,000 -1,597 Descending Denver Center
Wed 04:18:13 PM 40.4075 -105.1628 146° Southeast 319 367 19,200 -1,694 Descending Denver Center
Wed 04:19:15 PM 40.3394 -105.0911 141° Southeast 312 359 17,500 -1,610 Descending Denver Center
Wed 04:20:16 PM 40.2636 -105.0119 141° Southeast 326 375 15,900 -1,220 Descending Denver Center
Wed 04:21:18 PM 40.1958 -104.9400 141° Southeast 315 362 15,000 -823 Descending Denver Center
Wed 04:22:20 PM 40.1308 -104.8722 141° Southeast 301 346 14,200 -871 Descending Denver Center
Wed 04:23:22 PM 40.0592 -104.7972 141° Southeast 305 351 13,200 -726 Descending Denver Center
Wed 04:24:24 PM 40.0039 -104.7333 138° Southeast 256 295 12,700 -919 Descending Denver Center
Wed 04:25:26 PM 39.9586 -104.6617 129° Southeast 255 293 11,300 -756 Descending Denver Center
Wed 04:26:39 PM 39.9094 -104.5894 132° Southeast 246 283 11,000 -132 Descending Denver Center
Wed 04:27:42 PM 39.8517 -104.5072 132° Southeast 250 288 11,000  Level Denver Center
Wed 04:28:44 PM 39.7878 -104.4828 164° South 250 288 11,000 -581 Level Denver Center
Wed 04:29:46 PM 39.7169 -104.4892 184° South 250 288 9,800 -1,220 Descending Denver Center
Wed 04:30:47 PM 39.6428 -104.4981 185° South 245 282 8,500 -878 Descending Denver Center
Wed 04:31:49 PM 39.5750 -104.5117 189° South 242 278 8,000 -242 Descending Denver Center
Wed 04:32:51 PM 39.5467 -104.5719 239° Southwest 226 260 8,000  Level Denver Center
Wed 04:33:53 PM 39.5631 -104.6439 286° West 213 245 8,000  Level Denver Center
Wed 04:34:55 PM 39.6161 -104.6444 360° North 191 220 8,000  Level Denver Center
Wed 04:35:57 PM 39.6681 -104.6458 359° North 187 215 8,000 -98 Level Denver Center
Wed 04:36:58 PM 39.7181 -104.6431 North 171 197 7,800 -197 Descending Denver Center

Login

Don't have an account? Register now (free) for customized features, flight alerts, and more!